Landers, California
Current Conditions -  °F | °C
As of 8:56 PM on Thursday 30 Oct 2014 (Local Time) from KNXP Reporting Station
Clear Clear  
Wind Chill: 71°   Ceiling: Unl
Heat Index: 71°   Visibility: 10mi
Dew Point: 34°   Wind: 8mph
Humidity: 26%   Direction: 230°SW
Pressure: 30.04"   Gusts: NA
Location:  34.27°N, 116.39°W
Report Text: KNXP 310356Z AUTO 23007KT 10SM CLR 22/01 A3004 RMK AO2 SLP144 T02170011 $
Loading
Personal Weather Stations






























Interactive Weather Map New forecast layout! Learn more

10-Day Weather Forecast

Advertisements
Track Severe Weather on mobile